Time;durP1;ratioP1;P1;durP2;ratioP2;P2;SDS_P1;SDS_P2;PMS_P1;PMS_P2;Temp;Humidity;BMP_temperature;BMP_pressure;BME280_temperature;BME280_humidity;BME280_pressure;Samples;Min_cycle;Max_cycle;Signal;HPM_P1;HPM_P2
2022/07/13 00:02:07;;;;;;;2.05;0.95;;;16.80;99.90;;;;;;5014463;28;20042;-79
2022/07/13 00:04:33;;;;;;;1.63;1.05;;;16.80;99.90;;;;;;5013584;28;20106;-80
2022/07/13 00:07:00;;;;;;;1.42;0.75;;;16.80;99.90;;;;;;4968399;28;20051;-80
2022/07/13 00:09:26;;;;;;;4.18;1.00;;;16.80;99.90;;;;;;4967429;28;20066;-79
2022/07/13 00:11:52;;;;;;;2.05;1.20;;;16.90;99.90;;;;;;4972713;28;20039;-80
2022/07/13 00:14:18;;;;;;;2.60;1.00;;;16.90;99.90;;;;;;4967953;28;20400;-80
2022/07/13 00:16:45;;;;;;;1.35;1.17;;;17.00;99.90;;;;;;4950712;28;20099;-80
2022/07/13 00:19:11;;;;;;;2.33;0.90;;;17.10;99.90;;;;;;4966331;28;20037;-80
2022/07/13 00:21:38;;;;;;;3.97;1.10;;;17.20;99.90;;;;;;4967979;28;20119;-80
2022/07/13 00:24:05;;;;;;;2.95;0.80;;;17.30;99.90;;;;;;4965873;28;20459;-81
2022/07/13 00:26:32;;;;;;;1.75;1.02;;;17.40;99.90;;;;;;4970765;28;20050;-80
2022/07/13 00:28:58;;;;;;;1.20;0.75;;;17.40;99.50;;;;;;4963223;28;20048;-79
2022/07/13 00:31:24;;;;;;;1.88;0.95;;;17.30;99.80;;;;;;4946244;28;20040;-80
2022/07/13 00:33:50;;;;;;;1.58;1.15;;;17.10;99.90;;;;;;4971098;28;20054;-80
2022/07/13 00:36:16;;;;;;;1.42;0.90;;;17.00;99.90;;;;;;4967764;28;20045;-80
2022/07/13 00:38:43;;;;;;;1.58;0.90;;;16.90;99.90;;;;;;5002006;28;20046;-81
2022/07/13 00:41:09;;;;;;;2.05;0.98;;;16.80;99.90;;;;;;4996492;28;20379;-80
2022/07/13 00:43:35;;;;;;;3.47;1.08;;;16.80;99.90;;;;;;5013095;28;20459;-79
2022/07/13 00:46:06;;;;;;;1.85;1.05;;;17.00;99.90;;;;;;5013527;28;20041;-80
2022/07/13 00:48:34;;;;;;;1.35;0.75;;;17.00;99.90;;;;;;4989618;28;20050;-80
2022/07/13 00:51:01;;;;;;;2.25;0.90;;;17.00;99.90;;;;;;5000273;28;20503;-79
2022/07/13 00:53:28;;;;;;;1.20;0.80;;;17.00;99.90;;;;;;5013771;28;20037;-80
2022/07/13 00:55:56;;;;;;;1.38;0.80;;;16.90;99.90;;;;;;5014040;28;20045;-80
2022/07/13 00:58:22;;;;;;;2.38;1.00;;;17.00;99.90;;;;;;5013102;28;20033;-80
2022/07/13 01:00:49;;;;;;;1.35;1.00;;;17.00;99.90;;;;;;4996165;28;20065;-80
2022/07/13 01:03:15;;;;;;;2.85;0.93;;;17.10;99.90;;;;;;5008728;28;20068;-80
2022/07/13 01:05:43;;;;;;;1.17;1.05;;;17.00;99.90;;;;;;5013261;28;20034;-80
2022/07/13 01:08:11;;;;;;;1.25;0.73;;;17.00;99.90;;;;;;5010970;28;20033;-80
2022/07/13 01:10:38;;;;;;;3.05;1.10;;;17.00;99.90;;;;;;5012718;28;20033;-80
2022/07/13 01:13:08;;;;;;;2.83;1.48;;;16.90;99.90;;;;;;5010480;28;20053;-81
2022/07/13 01:15:35;;;;;;;2.55;1.00;;;16.90;99.90;;;;;;5012800;28;20390;-80
2022/07/13 01:18:01;;;;;;;3.13;1.63;;;16.90;99.90;;;;;;5010959;28;20034;-81
2022/07/13 01:20:28;;;;;;;3.00;1.10;;;17.00;99.90;;;;;;5011828;28;20046;-80
2022/07/13 01:22:55;;;;;;;1.90;1.30;;;17.00;99.90;;;;;;4994459;28;20033;-80
2022/07/13 01:25:21;;;;;;;2.20;0.65;;;17.10;99.90;;;;;;5012439;28;20057;-81
2022/07/13 01:27:49;;;;;;;2.55;1.20;;;17.10;99.90;;;;;;5011541;28;20041;-81
2022/07/13 01:30:16;;;;;;;2.70;1.10;;;17.00;99.90;;;;;;5026926;28;20049;-81
2022/07/13 01:32:44;;;;;;;1.08;0.80;;;17.10;99.90;;;;;;5011960;28;20034;-81
2022/07/13 01:35:10;;;;;;;1.65;1.00;;;17.20;99.90;;;;;;5011929;28;20029;-81
2022/07/13 01:37:37;;;;;;;3.33;1.38;;;17.40;99.90;;;;;;5020626;28;20045;-81
2022/07/13 01:40:05;;;;;;;1.67;0.82;;;17.50;99.90;;;;;;5012298;28;20375;-81
2022/07/13 01:42:38;;;;;;;1.65;0.82;;;17.60;99.90;;;;;;5008752;28;20042;-81
2022/07/13 01:45:07;;;;;;;5.10;1.17;;;17.60;99.90;;;;;;5012371;28;20391;-81
2022/07/13 01:47:37;;;;;;;2.22;0.88;;;17.60;99.90;;;;;;5020193;28;20046;-81
2022/07/13 01:50:05;;;;;;;1.95;0.85;;;17.60;99.90;;;;;;5011805;28;20037;-81
2022/07/13 01:52:33;;;;;;;4.07;1.20;;;17.40;99.90;;;;;;5026116;28;20475;-80
2022/07/13 01:54:59;;;;;;;3.17;1.10;;;17.30;99.90;;;;;;5013809;28;20033;-81
2022/07/13 01:57:25;;;;;;;2.40;1.15;;;17.20;99.90;;;;;;5007156;28;20046;-81
2022/07/13 01:59:51;;;;;;;2.28;0.82;;;17.20;99.90;;;;;;5013382;28;20053;-81
2022/07/13 02:02:19;;;;;;;1.67;1.13;;;17.20;99.90;;;;;;5010845;28;20057;-81
2022/07/13 02:04:45;;;;;;;1.15;0.88;;;17.20;99.90;;;;;;5013707;28;20367;-81
2022/07/13 02:07:13;;;;;;;8.40;1.65;;;17.10;99.90;;;;;;5012973;28;20057;-80
2022/07/13 02:09:39;;;;;;;2.63;1.40;;;17.10;99.90;;;;;;5016248;28;20041;-81
2022/07/13 02:12:07;;;;;;;2.00;1.08;;;17.10;99.90;;;;;;5014929;28;20049;-82
2022/07/13 02:14:33;;;;;;;2.08;1.30;;;17.10;99.90;;;;;;5012934;28;20037;-81
2022/07/13 02:16:59;;;;;;;3.97;1.20;;;17.10;99.90;;;;;;4996923;28;20513;-81
2022/07/13 02:19:25;;;;;;;1.60;0.98;;;16.90;99.90;;;;;;5008841;28;20042;-81
2022/07/13 02:21:53;;;;;;;1.95;0.98;;;16.80;99.90;;;;;;5012142;28;20042;-81
2022/07/13 02:24:19;;;;;;;2.33;1.42;;;16.80;99.90;;;;;;5012385;28;20049;-82
2022/07/13 02:26:46;;;;;;;1.33;0.75;;;16.80;99.90;;;;;;5012719;28;20041;-81
2022/07/13 02:29:12;;;;;;;1.90;1.10;;;16.80;99.90;;;;;;5012004;28;20030;-81
2022/07/13 02:31:39;;;;;;;2.67;0.98;;;16.80;99.90;;;;;;5007234;28;20065;-81
2022/07/13 02:34:05;;;;;;;2.40;0.88;;;16.80;99.90;;;;;;5014395;28;20034;-80
2022/07/13 02:36:32;;;;;;;1.90;1.30;;;16.90;99.90;;;;;;5013440;28;20045;-81
2022/07/13 02:38:58;;;;;;;4.47;1.30;;;16.70;99.90;;;;;;5008199;28;20399;-80
2022/07/13 02:41:24;;;;;;;2.53;1.33;;;16.60;99.90;;;;;;5013767;28;20492;-80
2022/07/13 02:43:50;;;;;;;1.85;1.10;;;16.50;99.90;;;;;;5011410;28;20057;-80
2022/07/13 02:46:17;;;;;;;1.23;0.90;;;16.40;99.90;;;;;;5014060;28;20037;-81
2022/07/13 02:48:43;;;;;;;3.47;1.58;;;16.40;99.90;;;;;;5013385;28;20474;-80
2022/07/13 02:51:09;;;;;;;4.90;2.05;;;16.40;99.90;;;;;;5014962;28;20379;-80
2022/07/13 02:53:35;;;;;;;3.13;1.30;;;16.30;99.90;;;;;;5015494;28;20041;-81
2022/07/13 02:56:01;;;;;;;2.75;1.20;;;16.20;99.90;;;;;;5010021;28;20045;-80
2022/07/13 02:58:30;;;;;;;2.80;1.52;;;16.30;99.90;;;;;;5034773;28;20022;-81
2022/07/13 03:00:56;;;;;;;3.55;1.42;;;16.30;99.90;;;;;;5038083;28;20010;-80
2022/07/13 03:03:23;;;;;;;2.20;1.25;;;16.30;99.90;;;;;;5022462;28;20054;-79
2022/07/13 03:05:49;;;;;;;2.72;1.60;;;16.40;99.90;;;;;;5017767;28;20048;-79
2022/07/13 03:08:17;;;;;;;2.00;1.30;;;16.60;99.90;;;;;;5030532;28;20048;-81
2022/07/13 03:10:45;;;;;;;2.50;1.00;;;16.70;99.90;;;;;;5005904;28;20049;-81
2022/07/13 03:13:11;;;;;;;3.17;1.20;;;16.80;99.90;;;;;;4999914;28;20510;-81
2022/07/13 03:15:37;;;;;;;1.67;1.05;;;17.00;99.90;;;;;;5011540;28;20038;-80
2022/07/13 03:18:04;;;;;;;4.28;1.95;;;17.00;99.90;;;;;;4996580;28;20053;-81
2022/07/13 03:20:30;;;;;;;2.28;1.38;;;17.00;99.90;;;;;;5003666;28;20037;-79
2022/07/13 03:22:56;;;;;;;5.15;1.85;;;17.00;99.90;;;;;;5017066;28;20471;-80
2022/07/13 03:25:22;;;;;;;4.13;1.10;;;17.00;99.90;;;;;;5017817;28;20494;-79
2022/07/13 03:27:53;;;;;;;2.33;0.98;;;17.00;99.90;;;;;;5018310;28;20050;-80
2022/07/13 03:30:20;;;;;;;5.55;1.25;;;17.10;99.90;;;;;;5025311;28;20049;-80
2022/07/13 03:32:48;;;;;;;3.25;1.20;;;17.20;99.90;;;;;;5010581;28;20076;-80
2022/07/13 03:35:15;;;;;;;4.15;1.20;;;17.10;99.90;;;;;;5012843;28;20502;-80
2022/07/13 03:37:44;;;;;;;2.28;1.02;;;17.00;99.90;;;;;;5028162;28;20414;-79
2022/07/13 03:40:12;;;;;;;1.15;0.70;;;16.80;99.90;;;;;;5012445;28;20046;-79
2022/07/13 03:42:39;;;;;;;8.45;1.20;;;16.70;99.90;;;;;;5013879;28;20034;-80
2022/07/13 03:45:07;;;;;;;2.78;1.00;;;16.60;99.90;;;;;;4996572;28;20049;-79
2022/07/13 03:47:34;;;;;;;2.33;1.00;;;16.50;99.90;;;;;;5022445;28;20057;-79
2022/07/13 03:50:00;;;;;;;2.50;1.40;;;16.30;99.90;;;;;;5014982;28;20040;-79
2022/07/13 03:52:27;;;;;;;2.15;1.10;;;16.20;99.90;;;;;;5014569;28;20045;-79
2022/07/13 03:54:53;;;;;;;3.65;1.92;;;16.20;99.90;;;;;;5013021;28;20040;-80
2022/07/13 03:57:20;;;;;;;1.88;1.10;;;16.30;99.90;;;;;;5016463;28;20046;-79
2022/07/13 03:59:46;;;;;;;3.83;1.20;;;16.40;99.90;;;;;;5016109;28;20505;-80
2022/07/13 04:02:13;;;;;;;4.35;1.27;;;16.30;99.90;;;;;;5013968;28;20038;-81
2022/07/13 04:04:40;;;;;;;2.45;1.08;;;16.30;99.90;;;;;;4997731;28;20500;-81
2022/07/13 04:07:07;;;;;;;2.25;1.23;;;16.20;99.90;;;;;;4996503;28;20046;-80
2022/07/13 04:09:34;;;;;;;2.50;1.20;;;16.20;99.90;;;;;;4992689;28;20041;-80
2022/07/13 04:12:00;;;;;;;2.28;1.20;;;16.30;99.90;;;;;;5011680;28;20026;-80
2022/07/13 04:14:27;;;;;;;3.78;1.75;;;16.30;99.90;;;;;;4979516;28;20053;-79
2022/07/13 04:16:54;;;;;;;1.63;1.23;;;16.20;99.90;;;;;;4999982;28;20042;-80
2022/07/13 04:19:21;;;;;;;1.83;1.25;;;16.10;99.90;;;;;;4998183;28;20054;-80
2022/07/13 04:21:47;;;;;;;2.63;1.45;;;16.00;99.90;;;;;;5014775;28;20066;-81
2022/07/13 04:24:15;;;;;;;2.60;1.20;;;16.00;99.90;;;;;;4996503;28;20042;-80
2022/07/13 04:26:42;;;;;;;2.55;1.70;;;16.10;99.90;;;;;;4999440;28;20050;-80
2022/07/13 04:29:08;;;;;;;5.60;1.60;;;16.00;99.90;;;;;;5011363;28;20048;-81
2022/07/13 04:31:38;;;;;;;2.00;1.33;;;15.90;99.90;;;;;;4997352;28;20053;-78
2022/07/13 04:34:05;;;;;;;2.35;1.10;;;15.90;99.90;;;;;;4996662;28;20034;-81
2022/07/13 04:36:32;;;;;;;1.42;1.02;;;15.90;99.90;;;;;;5013021;28;20041;-81
2022/07/13 04:38:59;;;;;;;3.88;1.30;;;16.00;99.90;;;;;;4987929;28;20042;-79
2022/07/13 04:41:25;;;;;;;2.20;1.33;;;16.10;99.90;;;;;;4994763;28;20365;-80
2022/07/13 04:43:52;;;;;;;1.83;1.30;;;16.20;99.90;;;;;;4978011;28;20436;-80
2022/07/13 04:46:24;;;;;;;6.20;1.70;;;16.40;99.90;;;;;;4993514;28;20391;-80
2022/07/13 04:48:51;;;;;;;4.87;1.53;;;16.70;99.90;;;;;;5009397;28;20054;-80
2022/07/13 04:51:17;;;;;;;3.08;0.82;;;16.80;99.90;;;;;;4990265;28;20041;-80
2022/07/13 04:53:46;;;;;;;2.47;1.52;;;17.00;99.90;;;;;;4973871;28;20519;-80
2022/07/13 04:56:13;;;;;;;1.92;1.20;;;17.00;99.90;;;;;;4974403;28;20050;-80
2022/07/13 04:58:39;;;;;;;5.53;2.38;;;17.00;99.90;;;;;;4957447;28;20046;-79
2022/07/13 05:01:06;;;;;;;7.35;1.13;;;17.00;99.90;;;;;;4990671;28;20034;-79
2022/07/13 05:03:33;;;;;;;8.75;2.40;;;17.10;99.90;;;;;;4989103;28;20054;-81
2022/07/13 05:06:00;;;;;;;2.17;1.02;;;17.30;99.90;;;;;;4972270;28;20042;-80
2022/07/13 05:08:27;;;;;;;2.70;1.15;;;17.60;99.90;;;;;;4987463;28;20226;-79
2022/07/13 05:10:53;;;;;;;3.95;1.35;;;18.00;99.90;;;;;;5009565;28;20037;-78
2022/07/13 05:13:20;;;;;;;3.15;1.00;;;18.20;99.90;;;;;;5008179;28;20381;-79
2022/07/13 05:15:49;;;;;;;2.10;1.00;;;18.40;99.90;;;;;;4992969;28;20053;-80
2022/07/13 05:18:17;;;;;;;3.40;1.10;;;18.70;99.90;;;;;;5002532;28;20081;-80
2022/07/13 05:20:44;;;;;;;3.25;1.40;;;19.00;99.90;;;;;;5005067;28;20041;-81
2022/07/13 05:23:10;;;;;;;3.08;1.20;;;19.20;99.90;;;;;;4989069;28;20157;-80
2022/07/13 05:25:37;;;;;;;2.10;1.50;;;19.40;99.70;;;;;;5007573;28;20042;-80
2022/07/13 05:28:03;;;;;;;2.55;1.17;;;19.40;99.60;;;;;;5005964;28;20058;-82
2022/07/13 05:30:31;;;;;;;3.80;1.33;;;19.50;99.70;;;;;;5017464;28;20498;-81
2022/07/13 05:32:58;;;;;;;1.88;1.15;;;19.60;98.60;;;;;;5015549;28;20046;-81
2022/07/13 05:35:24;;;;;;;2.33;1.10;;;19.60;98.60;;;;;;5015655;28;20463;-82
2022/07/13 05:37:51;;;;;;;2.47;1.25;;;19.70;98.40;;;;;;5028571;28;20049;-80
2022/07/13 05:40:18;;;;;;;4.53;1.33;;;19.80;98.80;;;;;;5025236;28;20041;-79
2022/07/13 05:42:44;;;;;;;1.85;1.00;;;20.00;97.60;;;;;;5014093;28;20151;-75
2022/07/13 05:45:10;;;;;;;1.70;1.10;;;20.10;97.40;;;;;;5015196;28;20029;-75
2022/07/13 05:47:46;;;;;;;4.00;1.23;;;20.00;97.30;;;;;;5012861;28;20391;-74
2022/07/13 05:50:14;;;;;;;2.63;1.10;;;19.90;97.60;;;;;;5018118;28;20049;-74
2022/07/13 05:52:43;;;;;;;2.92;1.15;;;20.10;98.00;;;;;;4992777;28;20053;-74
2022/07/13 05:55:12;;;;;;;2.28;1.00;;;20.40;97.40;;;;;;4991217;28;20038;-75
2022/07/13 05:57:38;;;;;;;2.92;1.02;;;20.30;96.30;;;;;;4992503;28;20116;-75
2022/07/13 06:00:10;;;;;;;2.45;1.20;;;20.40;96.50;;;;;;4993304;28;20030;-75
2022/07/13 06:02:39;;;;;;;2.53;1.30;;;20.60;95.60;;;;;;4995073;28;20057;-75
2022/07/13 06:05:05;;;;;;;2.35;1.30;;;20.80;95.10;;;;;;4977417;28;20046;-75
2022/07/13 06:07:32;;;;;;;5.97;1.27;;;20.90;95.20;;;;;;4995632;28;20058;-75
2022/07/13 06:10:00;;;;;;;3.33;1.20;;;20.90;95.40;;;;;;4991628;28;20054;-74
2022/07/13 06:12:26;;;;;;;2.05;1.00;;;20.80;95.30;;;;;;4993418;28;20042;-74
2022/07/13 06:14:52;;;;;;;3.80;0.93;;;20.90;96.00;;;;;;4977655;28;20034;-75
2022/07/13 06:17:20;;;;;;;1.38;1.08;;;20.90;94.80;;;;;;4977249;28;20053;-75
2022/07/13 06:19:46;;;;;;;3.83;0.90;;;20.90;94.10;;;;;;4979704;28;20527;-76
2022/07/13 06:22:12;;;;;;;2.22;1.00;;;21.00;94.40;;;;;;4992834;28;20034;-75
2022/07/13 06:24:39;;;;;;;4.80;1.35;;;21.00;93.70;;;;;;5013010;28;20042;-74
2022/07/13 06:27:05;;;;;;;6.82;1.10;;;21.00;93.80;;;;;;5014378;28;20029;-75
2022/07/13 06:29:31;;;;;;;1.92;1.15;;;20.90;93.70;;;;;;5014958;28;20041;-74
2022/07/13 06:31:57;;;;;;;1.98;1.08;;;20.80;94.10;;;;;;5014191;28;20034;-74
2022/07/13 06:34:23;;;;;;;2.58;1.20;;;21.10;93.50;;;;;;5014652;28;20030;-76
2022/07/13 06:36:49;;;;;;;2.58;1.33;;;21.40;93.60;;;;;;5014481;28;20125;-75
2022/07/13 06:39:15;;;;;;;3.08;0.95;;;21.60;92.00;;;;;;5014115;28;20033;-75
2022/07/13 06:41:42;;;;;;;6.10;1.67;;;21.70;92.30;;;;;;5014331;28;20033;-74
2022/07/13 06:44:08;;;;;;;5.68;1.23;;;21.70;92.40;;;;;;5014510;28;20056;-77
2022/07/13 06:46:35;;;;;;;2.70;1.40;;;22.00;93.20;;;;;;5014183;28;20037;-72
2022/07/13 06:49:01;;;;;;;3.63;1.38;;;22.40;92.10;;;;;;5012736;28;20502;-72
2022/07/13 06:51:28;;;;;;;4.43;2.25;;;22.60;90.80;;;;;;5013574;28;20368;-73
2022/07/13 06:53:54;;;;;;;3.92;1.55;;;23.10;90.60;;;;;;5013431;28;20037;-73
2022/07/13 06:56:23;;;;;;;2.42;1.58;;;23.20;88.30;;;;;;5013958;28;20498;-73
2022/07/13 06:58:49;;;;;;;4.28;1.77;;;22.90;89.30;;;;;;5013066;28;20037;-79
2022/07/13 07:01:15;;;;;;;5.00;1.63;;;22.60;89.80;;;;;;5014362;28;20045;-82
2022/07/13 07:03:41;;;;;;;2.45;1.55;;;22.90;90.10;;;;;;5014728;28;20046;-82
2022/07/13 07:06:08;;;;;;;2.17;1.20;;;23.20;86.30;;;;;;5011893;28;20029;-82
2022/07/13 07:08:35;;;;;;;2.33;1.23;;;24.10;82.70;;;;;;5016560;28;20497;-82
2022/07/13 07:11:01;;;;;;;3.13;1.58;;;25.30;79.70;;;;;;5023229;28;20037;-83
2022/07/13 07:13:27;;;;;;;3.38;1.85;;;26.20;75.20;;;;;;5019250;28;20034;-83
2022/07/13 07:15:53;;;;;;;4.57;1.50;;;26.30;71.00;;;;;;5021444;28;20388;-83
2022/07/13 07:18:23;;;;;;;6.32;1.40;;;26.00;71.50;;;;;;5019833;28;20037;-82
2022/07/13 07:20:49;;;;;;;4.28;1.10;;;25.50;70.80;;;;;;5021582;28;20032;-83
2022/07/13 07:23:16;;;;;;;3.90;1.45;;;25.60;71.50;;;;;;5022479;28;20038;-82
2022/07/13 07:25:42;;;;;;;5.00;1.42;;;26.10;70.30;;;;;;5027245;28;20037;-82
2022/07/13 07:28:09;;;;;;;2.28;0.90;;;26.40;67.10;;;;;;5023427;28;20022;-82
2022/07/13 07:30:36;;;;;;;6.50;1.38;;;26.30;65.60;;;;;;5048341;28;20032;-82
2022/07/13 07:33:03;;;;;;;4.15;0.90;;;26.20;63.70;;;;;;5026334;28;20038;-83
2022/07/13 07:35:29;;;;;;;7.35;1.10;;;25.50;62.50;;;;;;5024736;28;20034;-81
2022/07/13 07:37:56;;;;;;;4.63;0.70;;;25.20;65.10;;;;;;5017012;28;20041;-82
2022/07/13 07:40:22;;;;;;;6.15;1.05;;;25.70;63.90;;;;;;5023642;28;20029;-83
2022/07/13 07:42:48;;;;;;;4.53;0.95;;;25.80;62.60;;;;;;5008980;28;20498;-83
2022/07/13 07:45:15;;;;;;;2.25;1.13;;;26.00;62.90;;;;;;5013239;28;20034;-83
2022/07/13 07:47:41;;;;;;;4.32;1.05;;;26.20;60.50;;;;;;5015459;28;20038;-82
2022/07/13 07:50:08;;;;;;;3.05;0.60;;;26.30;61.80;;;;;;5016100;28;20048;-83
2022/07/13 07:52:34;;;;;;;2.20;1.00;;;26.40;59.70;;;;;;5016739;28;20042;-82
2022/07/13 07:55:00;;;;;;;3.33;0.73;;;26.50;59.50;;;;;;5013353;28;20482;-82
2022/07/13 07:57:27;;;;;;;4.35;1.77;;;26.70;59.70;;;;;;4994601;28;20038;-82
2022/07/13 07:59:53;;;;;;;2.53;0.75;;;26.90;59.70;;;;;;5013045;28;20479;-82
2022/07/13 08:02:19;;;;;;;3.15;1.05;;;27.40;58.00;;;;;;5012642;28;20057;-82
2022/07/13 08:04:45;;;;;;;4.38;0.77;;;27.30;57.10;;;;;;5018976;28;20021;-82
2022/07/13 08:07:11;;;;;;;4.63;1.38;;;27.60;58.20;;;;;;5019645;28;20034;-81
2022/07/13 08:09:38;;;;;;;11.85;1.60;;;28.60;55.60;;;;;;5024440;28;20037;-82
2022/07/13 08:12:04;;;;;;;6.93;1.50;;;28.80;56.50;;;;;;5024065;28;20026;-83
2022/07/13 08:14:31;;;;;;;2.47;0.60;;;29.80;55.70;;;;;;5030311;28;20391;-80
2022/07/13 08:16:58;;;;;;;3.47;0.90;;;30.60;51.90;;;;;;5031582;28;20042;-80
2022/07/13 08:19:24;;;;;;;1.73;0.70;;;31.30;52.60;;;;;;5029047;28;20045;-80
2022/07/13 08:21:50;;;;;;;2.65;0.93;;;31.90;50.90;;;;;;5023778;28;20030;-81
2022/07/13 08:24:17;;;;;;;2.30;0.77;;;32.00;50.80;;;;;;5020774;28;20037;-81
2022/07/13 08:26:43;;;;;;;8.48;1.30;;;32.20;49.10;;;;;;5013388;28;20037;-81
2022/07/13 08:29:09;;;;;;;2.83;0.73;;;32.00;50.00;;;;;;5018543;28;20037;-81
2022/07/13 08:31:36;;;;;;;2.75;0.80;;;32.20;50.20;;;;;;4977595;28;20369;-81
2022/07/13 08:39:31;;;;;;;5.55;1.55;;;31.70;51.10;;;;;;4977197;28;20057;-81
2022/07/13 08:41:59;;;;;;;3.83;1.02;;;30.80;52.20;;;;;;4978778;28;20037;-81
2022/07/13 08:44:25;;;;;;;3.83;1.20;;;31.10;50.30;;;;;;4977373;28;20046;-80
2022/07/13 08:46:52;;;;;;;11.25;2.42;;;29.90;51.70;;;;;;4978785;28;20053;-81
2022/07/13 08:49:19;;;;;;;3.92;0.98;;;30.00;53.00;;;;;;4977384;28;20055;-82
2022/07/13 08:51:47;;;;;;;3.83;1.35;;;30.30;51.20;;;;;;4980089;28;20038;-83
2022/07/13 08:54:14;;;;;;;4.50;1.67;;;30.50;51.80;;;;;;4969142;28;20034;-79
2022/07/13 08:56:43;;;;;;;6.07;1.08;;;29.50;52.10;;;;;;4970089;28;20054;-80
2022/07/13 08:59:10;;;;;;;3.22;1.55;;;29.30;53.10;;;;;;4969631;28;20143;-79
2022/07/13 09:01:37;;;;;;;1.70;0.80;;;30.10;51.80;;;;;;4972340;28;20039;-80
2022/07/13 09:08:05;;;;;;;2.75;0.80;;;30.20;50.30;;;;;;4998943;28;20041;-81
2022/07/13 09:10:32;;;;;;;2.05;0.90;;;30.80;49.50;;;;;;5007959;28;20145;-81
2022/07/13 09:12:58;;;;;;;2.13;0.50;;;31.30;50.00;;;;;;5016252;28;20030;-81
2022/07/13 09:15:24;;;;;;;3.70;0.60;;;31.60;47.70;;;;;;5019176;28;20033;-81
2022/07/13 09:17:51;;;;;;;4.13;0.75;;;31.30;48.30;;;;;;5025060;28;20037;-81
2022/07/13 09:20:20;;;;;;;6.60;1.08;;;30.80;49.20;;;;;;5025600;28;20045;-81
2022/07/13 09:22:50;;;;;;;1.33;0.73;;;30.70;49.30;;;;;;5022919;28;20056;-81
2022/07/13 09:25:37;;;;;;;0.60;0.40;;;30.40;47.90;;;;;;5018609;28;20478;-81
2022/07/13 09:28:05;;;;;;;1.63;0.40;;;30.00;47.60;;;;;;5013503;28;20030;-80
2022/07/13 09:30:32;;;;;;;3.67;0.82;;;29.70;48.20;;;;;;5018111;28;20073;-80
2022/07/13 09:32:59;;;;;;;2.72;0.63;;;29.50;49.50;;;;;;5017344;28;20041;-80
2022/07/13 09:35:49;;;;;;;1.75;0.50;;;29.90;47.50;;;;;;5017211;28;20030;-81
2022/07/13 09:38:36;;;;;;;1.23;0.50;;;31.00;48.00;;;;;;5015768;28;20041;-80
2022/07/13 09:41:20;;;;;;;5.05;0.60;;;32.50;46.50;;;;;;5016471;28;20045;-81
2022/07/13 09:46:52;;;;;;;1.20;0.30;;;33.30;45.30;;;;;;5015907;28;20423;-81
2022/07/13 09:49:19;;;;;;;2.65;0.60;;;32.90;44.20;;;;;;5016095;28;20053;-81
2022/07/13 09:51:45;;;;;;;1.42;0.60;;;32.30;46.10;;;;;;5015921;28;20033;-80
2022/07/13 09:54:12;;;;;;;2.67;0.35;;;32.10;44.60;;;;;;5016344;28;20030;-80
2022/07/13 09:56:47;;;;;;;1.40;0.40;;;32.10;44.00;;;;;;5013058;28;20029;-80
2022/07/13 09:59:15;;;;;;;1.23;0.40;;;31.80;43.90;;;;;;5015506;28;20082;-81
2022/07/13 10:01:45;;;;;;;2.38;0.40;;;31.20;45.00;;;;;;5015205;28;20061;-81
2022/07/13 10:04:12;;;;;;;0.77;0.20;;;31.60;44.90;;;;;;5015310;28;20490;-82
2022/07/13 10:06:39;;;;;;;1.02;0.35;;;32.20;42.90;;;;;;4998050;28;20041;-83
2022/07/13 10:09:05;;;;;;;0.50;0.30;;;31.80;42.20;;;;;;5014808;28;20034;-81
2022/07/13 10:11:31;;;;;;;2.50;0.40;;;32.00;43.70;;;;;;5014831;28;20034;-81
2022/07/13 10:13:58;;;;;;;0.70;0.30;;;33.30;42.00;;;;;;5015760;28;20041;-81
2022/07/13 10:16:29;;;;;;;2.90;0.50;;;33.00;42.70;;;;;;5010384;28;20057;-81
2022/07/13 10:19:03;;;;;;;2.13;0.50;;;32.40;41.30;;;;;;4996815;28;20045;-82
2022/07/13 10:21:35;;;;;;;3.75;0.70;;;31.60;43.20;;;;;;4997290;28;20041;-81
2022/07/13 10:24:01;;;;;;;1.90;0.40;;;31.30;42.20;;;;;;5015119;28;20041;-81
2022/07/13 10:26:31;;;;;;;0.55;0.20;;;31.70;42.00;;;;;;5014425;28;20077;-81
2022/07/13 10:29:04;;;;;;;0.93;0.40;;;31.90;42.10;;;;;;4996415;28;20049;-82
2022/07/13 10:31:33;;;;;;;0.90;0.47;;;32.00;41.60;;;;;;5008914;28;20037;-81
2022/07/13 10:34:01;;;;;;;1.73;0.53;;;32.00;40.50;;;;;;5015514;28;20029;-79
2022/07/13 10:36:55;;;;;;;0.88;0.40;;;32.70;39.60;;;;;;5017844;28;20030;-80
2022/07/13 10:39:23;;;;;;;1.98;0.40;;;32.60;40.40;;;;;;5011496;28;20037;-83
2022/07/13 10:42:02;;;;;;;2.25;0.40;;;32.50;41.80;;;;;;5014649;28;20038;-82
2022/07/13 10:44:32;;;;;;;;;;;32.70;41.50;;;;;;5014384;28;20068;-81
2022/07/13 10:46:58;;;;;;;1.20;0.40;;;33.20;39.90;;;;;;5014288;28;19917;-82
2022/07/13 10:49:31;;;;;;;1.55;0.40;;;32.90;40.10;;;;;;5014141;28;20037;-81
2022/07/13 10:52:26;;;;;;;2.70;0.93;;;32.70;41.50;;;;;;5014265;28;20037;-81
2022/07/13 10:55:15;;;;;;;3.15;0.57;;;32.50;40.80;;;;;;5014080;28;20040;-81
2022/07/13 10:57:42;;;;;;;;;;;32.20;41.00;;;;;;5003506;28;20046;-81
2022/07/13 11:00:22;;;;;;;1.27;0.60;;;32.20;40.90;;;;;;5014241;28;19909;-81
2022/07/13 11:02:49;;;;;;;1.35;0.60;;;32.30;40.80;;;;;;5013350;28;20057;-81
2022/07/13 11:05:26;;;;;;;0.95;0.38;;;32.60;41.70;;;;;;5014411;28;20030;-80
2022/07/13 11:07:53;;;;;;;1.10;0.40;;;32.80;41.50;;;;;;5013888;28;20460;-81
2022/07/13 11:10:21;;;;;;;1.17;0.50;;;33.10;40.10;;;;;;5013988;28;20053;-80
2022/07/13 11:13:09;;;;;;;0.43;0.30;;;32.60;39.20;;;;;;5014263;28;20040;-81
2022/07/13 11:15:49;;;;;;;0.75;0.30;;;33.00;39.50;;;;;;5020624;28;20034;-81
2022/07/13 11:18:22;;;;;;;1.38;0.60;;;33.00;41.20;;;;;;5021649;28;20466;-80
2022/07/13 11:20:55;;;;;;;0.68;0.40;;;33.20;40.20;;;;;;4997861;28;20064;-79
2022/07/13 11:26:18;;;;;;;1.67;0.60;;;32.40;40.60;;;;;;5013939;28;20053;-81
2022/07/13 11:28:54;;;;;;;1.50;0.30;;;32.30;40.30;;;;;;4995303;28;20065;-81
2022/07/13 11:31:21;;;;;;;2.70;0.35;;;32.60;40.90;;;;;;5013439;28;20041;-82
2022/07/13 11:33:49;;;;;;;2.53;0.43;;;32.90;40.70;;;;;;5014471;28;20037;-81
2022/07/13 11:36:24;;;;;;;1.02;0.63;;;32.50;40.20;;;;;;5013928;28;20041;-77
2022/07/13 11:38:50;;;;;;;4.18;0.93;;;32.40;40.40;;;;;;5017184;28;20030;-80
2022/07/13 11:41:19;;;;;;;0.93;0.50;;;31.80;41.90;;;;;;5017439;28;20037;-79
2022/07/13 11:43:48;;;;;;;2.10;0.50;;;31.80;41.70;;;;;;5017877;28;20042;-80
2022/07/13 11:46:21;;;;;;;2.30;0.68;;;31.80;42.40;;;;;;5019883;28;20391;-80
2022/07/13 11:48:47;;;;;;;1.88;0.30;;;32.00;42.70;;;;;;5021808;28;20037;-81
2022/07/13 11:51:14;;;;;;;0.75;0.40;;;32.10;43.10;;;;;;5004997;28;20055;-81
2022/07/13 11:53:40;;;;;;;1.38;0.50;;;32.40;41.40;;;;;;5015179;28;20055;-81
2022/07/13 11:56:10;;;;;;;2.42;0.93;;;32.50;41.00;;;;;;5004356;28;20049;-81
2022/07/13 11:58:39;;;;;;;2.10;0.50;;;32.40;40.70;;;;;;5035819;28;20053;-80
2022/07/13 12:01:11;;;;;;;0.88;0.47;;;32.70;40.70;;;;;;5042939;28;20033;-80
2022/07/13 12:03:38;;;;;;;1.33;0.40;;;33.00;40.70;;;;;;5044624;28;20050;-80
2022/07/13 12:06:09;;;;;;;3.38;0.30;;;32.90;39.20;;;;;;5035755;28;20025;-81
2022/07/13 12:08:40;;;;;;;3.30;0.50;;;32.90;40.30;;;;;;5022476;28;20037;-81
2022/07/13 12:11:25;;;;;;;1.13;0.40;;;32.40;39.80;;;;;;5022946;28;20060;-81
2022/07/13 12:13:51;;;;;;;3.50;0.30;;;32.40;41.30;;;;;;5018510;28;20470;-81
2022/07/13 12:16:18;;;;;;;1.73;0.35;;;32.30;40.00;;;;;;5023651;28;20045;-80
2022/07/13 12:19:07;;;;;;;0.68;0.32;;;32.30;40.10;;;;;;5017561;28;20030;-80
2022/07/13 12:21:35;;;;;;;0.77;0.32;;;32.10;39.50;;;;;;5017404;28;20037;-80
2022/07/13 12:24:02;;;;;;;2.70;0.60;;;32.00;40.90;;;;;;5018094;28;20037;-80
2022/07/13 12:26:29;;;;;;;2.05;0.60;;;32.40;40.10;;;;;;5020838;28;20030;-81
2022/07/13 12:28:55;;;;;;;1.80;0.70;;;31.50;40.10;;;;;;5022925;28;20029;-81
2022/07/13 12:31:22;;;;;;;1.17;0.68;;;31.30;41.20;;;;;;5026287;28;20040;-80
2022/07/13 12:33:51;;;;;;;0.50;0.30;;;31.20;41.50;;;;;;5022873;28;20031;-81
2022/07/13 12:36:19;;;;;;;2.90;0.60;;;31.20;40.50;;;;;;4994650;28;20034;-80
2022/07/13 12:38:53;;;;;;;1.30;0.40;;;31.40;40.90;;;;;;5016861;28;20029;-81
2022/07/13 12:41:40;;;;;;;1.30;0.40;;;31.70;40.90;;;;;;5019175;28;20021;-80
2022/07/13 12:44:08;;;;;;;2.90;0.52;;;31.90;39.70;;;;;;5023341;28;20398;-80
2022/07/13 12:46:54;;;;;;;0.80;0.40;;;31.70;41.60;;;;;;5021487;28;20486;-80
2022/07/13 12:49:35;;;;;;;0.98;0.43;;;31.70;42.00;;;;;;5001892;28;20065;-80
2022/07/13 12:52:06;;;;;;;7.38;0.70;;;31.60;41.80;;;;;;5017712;28;20036;-80
2022/07/13 12:54:49;;;;;;;1.75;0.40;;;31.30;42.00;;;;;;5014104;28;20038;-81
2022/07/13 12:57:20;;;;;;;2.65;0.40;;;31.50;40.60;;;;;;5021094;28;20037;-81
2022/07/13 13:00:12;;;;;;;1.80;0.40;;;31.90;40.30;;;;;;5022230;28;20049;-80
2022/07/13 13:02:39;;;;;;;1.92;0.32;;;32.10;40.00;;;;;;5007591;28;20050;-81
2022/07/13 13:05:08;;;;;;;0.35;0.30;;;32.20;40.30;;;;;;5008797;28;20041;-81
2022/07/13 13:07:36;;;;;;;0.95;0.40;;;32.40;39.70;;;;;;5007559;28;20038;-80
2022/07/13 13:10:04;;;;;;;2.13;0.35;;;32.30;39.60;;;;;;5014635;28;20093;-81